createdAt,value
2018-08-19T00:00:52.320Z,0.00
2018-08-19T00:01:52.278Z,0.00
2018-08-19T00:02:52.234Z,0.00
2018-08-19T00:03:52.190Z,0.00
2018-08-19T00:04:52.125Z,0.00
2018-08-19T00:05:52.091Z,0.00
2018-08-19T00:06:52.051Z,0.00
2018-08-19T00:07:51.981Z,0.00
2018-08-19T00:08:51.957Z,0.00
2018-08-19T00:09:51.886Z,0.00
2018-08-19T00:10:51.835Z,0.00
2018-08-19T00:11:51.788Z,0.00
2018-08-19T00:12:51.742Z,0.00
2018-08-19T00:13:51.714Z,0.00
2018-08-19T00:14:51.647Z,0.00
2018-08-19T00:15:51.593Z,0.00
2018-08-19T00:16:51.546Z,0.00
2018-08-19T00:17:51.505Z,0.00
2018-08-19T00:18:51.481Z,0.00
2018-08-19T00:19:51.413Z,0.00
2018-08-19T00:20:51.360Z,0.00
2018-08-19T00:21:51.381Z,0.00
2018-08-19T00:22:51.260Z,0.00
2018-08-19T00:23:51.268Z,0.00
2018-08-19T00:24:51.169Z,0.00
2018-08-19T00:25:51.117Z,0.00
2018-08-19T00:26:51.080Z,0.00
2018-08-19T00:27:51.028Z,0.00
2018-08-19T00:28:51.004Z,0.00
2018-08-19T00:29:50.934Z,0.00
2018-08-19T00:30:50.882Z,0.00
2018-08-19T00:31:50.845Z,0.00
2018-08-19T00:32:50.784Z,0.00
2018-08-19T00:33:50.762Z,0.00
2018-08-19T00:34:50.696Z,0.00
2018-08-19T00:35:50.645Z,0.00
2018-08-19T00:36:50.593Z,0.00
2018-08-19T00:37:50.547Z,0.00
2018-08-19T00:38:50.529Z,0.00
2018-08-19T00:39:50.472Z,0.00
2018-08-19T00:40:50.419Z,0.00
2018-08-19T00:41:50.358Z,0.00
2018-08-19T00:42:50.305Z,0.00
2018-08-19T00:43:50.298Z,0.00
2018-08-19T00:44:50.217Z,0.00
2018-08-19T00:45:50.162Z,0.00
2018-08-19T00:46:50.142Z,0.00
2018-08-19T00:47:50.072Z,0.00
2018-08-19T00:48:50.019Z,0.00
2018-08-19T00:49:49.997Z,0.00
2018-08-19T00:50:49.925Z,0.00
2018-08-19T00:51:49.877Z,0.00
2018-08-19T00:52:49.826Z,0.00
2018-08-19T00:53:49.782Z,0.00
2018-08-19T00:54:49.757Z,0.00
2018-08-19T00:55:49.687Z,0.00
2018-08-19T00:56:49.657Z,0.00
2018-08-19T00:57:49.592Z,0.00
2018-08-19T00:58:49.551Z,0.00
2018-08-19T00:59:49.519Z,0.00
2018-08-19T01:00:49.448Z,0.00
2018-08-19T01:01:49.403Z,0.00
2018-08-19T01:02:49.351Z,0.00
2018-08-19T01:03:49.315Z,0.00
2018-08-19T01:04:49.279Z,0.00
2018-08-19T01:05:49.210Z,0.00
2018-08-19T01:06:49.182Z,0.00
2018-08-19T01:07:49.117Z,0.00
2018-08-19T01:08:49.076Z,0.00
2018-08-19T01:09:49.048Z,0.00
2018-08-19T01:10:48.985Z,0.00
2018-08-19T01:11:48.929Z,0.00
2018-08-19T01:12:48.874Z,0.00
2018-08-19T01:13:48.823Z,0.00
2018-08-19T01:14:48.800Z,0.00
2018-08-19T01:15:48.728Z,0.00
2018-08-19T01:16:48.676Z,0.00
2018-08-19T01:17:48.630Z,0.00
2018-08-19T01:18:48.586Z,0.00
2018-08-19T01:19:48.556Z,0.00
2018-08-19T01:20:48.487Z,0.00
2018-08-19T01:21:48.435Z,0.00
2018-08-19T01:22:48.399Z,0.00
2018-08-19T01:23:48.347Z,0.00
2018-08-19T01:24:48.334Z,0.00
2018-08-19T01:25:48.250Z,0.00
2018-08-19T01:26:48.201Z,0.00
2018-08-19T01:27:48.179Z,0.00
2018-08-19T01:28:48.124Z,0.00
2018-08-19T01:29:48.101Z,0.00
2018-08-19T01:30:48.021Z,0.00
2018-08-19T01:31:47.972Z,0.00
2018-08-19T01:32:47.922Z,0.00
2018-08-19T01:33:47.871Z,0.00
2018-08-19T01:34:47.872Z,0.00
2018-08-19T01:35:47.777Z,0.00
2018-08-19T01:36:47.722Z,0.00
2018-08-19T01:37:47.672Z,0.00
2018-08-19T01:38:47.632Z,0.00
2018-08-19T01:39:47.609Z,0.00
2018-08-19T01:40:47.546Z,0.00
2018-08-19T01:41:47.486Z,0.00
2018-08-19T01:42:47.453Z,0.00
2018-08-19T01:43:47.386Z,0.00
2018-08-19T01:44:47.369Z,0.00
2018-08-19T01:45:47.284Z,0.00
2018-08-19T01:46:47.241Z,0.00
2018-08-19T01:47:47.196Z,0.00
2018-08-19T01:48:47.141Z,0.00
2018-08-19T01:49:47.095Z,0.00
2018-08-19T01:50:47.068Z,0.00
2018-08-19T01:51:46.998Z,0.00
2018-08-19T01:52:46.953Z,0.00
2018-08-19T01:53:46.906Z,0.00
2018-08-19T01:54:46.852Z,0.00
2018-08-19T01:55:46.834Z,0.00
2018-08-19T01:56:46.761Z,0.00
2018-08-19T01:57:46.707Z,0.00
2018-08-19T01:58:46.660Z,0.00
2018-08-19T01:59:46.619Z,0.00
2018-08-19T02:00:46.591Z,0.00
2018-08-19T02:01:46.521Z,0.00
2018-08-19T02:02:46.475Z,0.00
2018-08-19T02:03:46.431Z,0.00
2018-08-19T02:04:46.372Z,0.00
2018-08-19T02:05:46.358Z,0.00
2018-08-19T02:06:46.279Z,0.00
2018-08-19T02:07:46.228Z,0.00
2018-08-19T02:08:46.180Z,0.00
2018-08-19T02:09:46.135Z,0.00
2018-08-19T02:10:46.108Z,0.00
2018-08-19T02:11:46.057Z,0.00
2018-08-19T02:12:45.995Z,0.00
2018-08-19T02:13:45.934Z,0.00
2018-08-19T02:14:45.892Z,0.00
2018-08-19T02:15:45.885Z,0.00
2018-08-19T02:16:45.795Z,0.00
2018-08-19T02:17:45.748Z,0.00
2018-08-19T02:18:45.701Z,0.00
2018-08-19T02:19:45.655Z,0.00
2018-08-19T02:20:45.660Z,0.00
2018-08-19T02:21:45.554Z,0.00
2018-08-19T02:22:45.512Z,0.00
2018-08-19T02:23:45.458Z,0.00
2018-08-19T02:24:45.412Z,0.00
2018-08-19T02:25:45.389Z,0.00
2018-08-19T02:26:45.328Z,0.00
2018-08-19T02:27:45.268Z,0.00
2018-08-19T02:28:45.218Z,0.00
2018-08-19T02:29:45.173Z,0.00
2018-08-19T02:30:45.148Z,0.00
2018-08-19T02:31:45.076Z,0.00
2018-08-19T02:32:45.025Z,0.00
2018-08-19T02:33:44.978Z,0.00
2018-08-19T02:34:44.934Z,0.00
2018-08-19T02:35:44.915Z,0.00
2018-08-19T02:36:44.834Z,0.00
2018-08-19T02:37:44.786Z,0.00
2018-08-19T02:38:44.736Z,0.00
2018-08-19T02:39:44.690Z,0.00
2018-08-19T02:40:44.665Z,0.00
2018-08-19T02:41:44.594Z,0.00
2018-08-19T02:42:44.544Z,0.00
2018-08-19T02:43:44.500Z,0.00
2018-08-19T02:44:44.448Z,0.00
2018-08-19T02:45:44.420Z,0.00
2018-08-19T02:46:44.349Z,0.00
2018-08-19T02:47:44.308Z,0.00
2018-08-19T02:48:44.256Z,0.00
2018-08-19T02:49:44.208Z,0.00
2018-08-19T02:50:44.181Z,0.00
2018-08-19T02:51:44.110Z,0.00
2018-08-19T02:52:44.062Z,0.00
2018-08-19T02:53:44.013Z,0.00
2018-08-19T02:54:43.969Z,0.00
2018-08-19T02:55:43.960Z,0.00
2018-08-19T02:56:43.873Z,0.00
2018-08-19T02:57:43.836Z,0.00
2018-08-19T02:58:43.799Z,0.00
2018-08-19T02:59:43.744Z,0.00
2018-08-19T03:00:43.722Z,0.00
2018-08-19T03:01:43.630Z,0.00
2018-08-19T03:02:43.583Z,0.00
2018-08-19T03:03:43.534Z,0.00
2018-08-19T03:04:43.483Z,0.00
2018-08-19T03:05:43.458Z,0.00
2018-08-19T03:06:43.384Z,0.00
2018-08-19T03:07:43.364Z,0.00
2018-08-19T03:08:43.287Z,0.00
2018-08-19T03:09:43.245Z,0.00
2018-08-19T03:10:43.232Z,0.00
2018-08-19T03:11:43.147Z,0.00
2018-08-19T03:12:43.100Z,0.00
2018-08-19T03:13:43.052Z,0.00
2018-08-19T03:14:43.008Z,0.00
2018-08-19T03:15:42.956Z,0.00
2018-08-19T03:16:42.935Z,0.00
2018-08-19T03:17:42.867Z,0.00
2018-08-19T03:18:42.812Z,0.00
2018-08-19T03:19:42.760Z,0.00
2018-08-19T03:20:42.714Z,0.00
2018-08-19T03:21:42.701Z,0.00
2018-08-19T03:22:42.639Z,0.00
2018-08-19T03:23:42.569Z,0.00
2018-08-19T03:24:42.522Z,0.00
2018-08-19T03:25:42.473Z,0.00
2018-08-19T03:26:42.450Z,0.00
2018-08-19T03:27:42.381Z,0.00
2018-08-19T03:28:42.346Z,0.00
2018-08-19T03:29:42.290Z,0.00
2018-08-19T03:30:42.242Z,0.00
2018-08-19T03:31:42.239Z,0.00
2018-08-19T03:32:42.137Z,0.00
2018-08-19T03:33:42.092Z,0.00
2018-08-19T03:34:42.049Z,0.00
2018-08-19T03:35:41.992Z,0.00
2018-08-19T03:36:41.971Z,0.00
2018-08-19T03:37:41.901Z,0.00
2018-08-19T03:38:41.855Z,0.00
2018-08-19T03:39:41.819Z,0.00
2018-08-19T03:40:41.762Z,0.00
2018-08-19T03:41:41.737Z,0.00
2018-08-19T03:42:41.655Z,0.00
2018-08-19T03:43:41.609Z,0.00
2018-08-19T03:44:41.569Z,0.00
2018-08-19T03:45:41.511Z,0.00
2018-08-19T03:46:41.490Z,0.00
2018-08-19T03:47:41.419Z,0.00
2018-08-19T03:48:41.364Z,0.00
2018-08-19T03:49:41.320Z,4.00
2018-08-19T03:50:41.289Z,4.00
2018-08-19T03:51:41.243Z,4.00
2018-08-19T03:52:41.172Z,4.00
2018-08-19T03:53:41.126Z,4.00
2018-08-19T03:54:41.075Z,4.00
2018-08-19T03:55:41.041Z,4.00
2018-08-19T03:56:41.011Z,8.00
2018-08-19T03:57:40.931Z,4.00
2018-08-19T03:58:40.889Z,8.00
2018-08-19T03:59:40.836Z,8.00
2018-08-19T04:00:40.789Z,8.00
2018-08-19T04:01:40.764Z,12.00
2018-08-19T04:02:40.690Z,16.00
2018-08-19T04:03:40.642Z,16.00
2018-08-19T04:04:40.603Z,16.00
2018-08-19T04:05:40.543Z,20.00
2018-08-19T04:06:40.535Z,20.00
2018-08-19T04:07:40.448Z,24.00
2018-08-19T04:08:40.403Z,28.00
2018-08-19T04:09:40.354Z,28.00
2018-08-19T04:10:40.304Z,32.00
2018-08-19T04:11:40.255Z,40.00
2018-08-19T04:12:40.231Z,40.00
2018-08-19T04:13:40.160Z,44.00
2018-08-19T04:14:40.113Z,48.00
2018-08-19T04:15:40.070Z,52.00
2018-08-19T04:16:40.023Z,60.00
2018-08-19T04:17:39.987Z,68.00
2018-08-19T04:18:39.924Z,76.00
2018-08-19T04:19:39.881Z,84.00
2018-08-19T04:20:39.818Z,92.00
2018-08-19T04:21:39.775Z,100.00
2018-08-19T04:22:39.748Z,112.00
2018-08-19T04:23:39.770Z,116.00
2018-08-19T04:24:39.637Z,128.00
2018-08-19T04:25:39.581Z,140.00
2018-08-19T04:26:39.534Z,152.00
2018-08-19T04:27:39.505Z,168.00
2018-08-19T04:28:39.436Z,176.00
2018-08-19T04:29:39.390Z,188.00
2018-08-19T04:30:39.339Z,204.00
2018-08-19T04:31:39.297Z,220.00
2018-08-19T04:32:39.265Z,236.00
2018-08-19T04:33:39.194Z,248.00
2018-08-19T04:34:39.153Z,264.00
2018-08-19T04:35:39.096Z,280.00
2018-08-19T04:36:39.066Z,296.00
2018-08-19T04:37:39.038Z,312.00
2018-08-19T04:38:38.955Z,328.00
2018-08-19T04:39:38.915Z,344.00
2018-08-19T04:40:38.853Z,360.00
2018-08-19T04:41:38.821Z,376.00
2018-08-19T04:42:38.799Z,400.00
2018-08-19T04:43:38.715Z,416.00
2018-08-19T04:44:38.663Z,436.00
2018-08-19T04:45:38.610Z,460.00
2018-08-19T04:46:38.565Z,476.00
2018-08-19T04:47:38.542Z,496.00
2018-08-19T04:48:38.469Z,520.00
2018-08-19T04:49:38.427Z,540.00
2018-08-19T04:50:38.384Z,564.00
2018-08-19T04:51:38.345Z,584.00
2018-08-19T04:52:38.298Z,600.00
2018-08-19T04:53:38.240Z,620.00
2018-08-19T04:54:38.184Z,640.00
2018-08-19T04:55:38.147Z,660.00
2018-08-19T04:56:38.080Z,684.00
2018-08-19T04:57:38.070Z,712.00
2018-08-19T04:58:37.988Z,740.00
2018-08-19T04:59:37.935Z,764.00
2018-08-19T05:00:37.889Z,780.00
2018-08-19T05:01:37.845Z,808.00
2018-08-19T05:02:37.865Z,824.00
2018-08-19T05:03:37.768Z,848.00
2018-08-19T05:04:37.696Z,868.00
2018-08-19T05:05:37.661Z,896.00
2018-08-19T05:06:37.602Z,912.00
2018-08-19T05:07:37.561Z,936.00
2018-08-19T05:08:37.533Z,964.00
2018-08-19T05:09:37.464Z,980.00
2018-08-19T05:10:37.424Z,996.00
2018-08-19T05:11:37.358Z,1016.00
2018-08-19T05:12:37.311Z,1036.00
2018-08-19T05:13:37.338Z,1056.00
2018-08-19T05:14:37.216Z,1064.00
2018-08-19T05:15:37.243Z,1080.00
2018-08-19T05:16:37.117Z,1100.00
2018-08-19T05:17:37.070Z,1120.00
2018-08-19T05:18:37.056Z,1144.00
2018-08-19T05:19:36.984Z,1156.00
2018-08-19T05:20:36.925Z,1184.00
2018-08-19T05:21:36.886Z,1192.00
2018-08-19T05:22:36.850Z,1224.00
2018-08-19T05:23:36.823Z,1240.00
2018-08-19T05:24:36.729Z,1256.00
2018-08-19T05:25:36.685Z,1288.00
2018-08-19T05:26:36.635Z,1332.00
2018-08-19T05:27:36.618Z,1396.00
2018-08-19T05:28:36.568Z,1456.00
2018-08-19T05:29:36.498Z,1520.00
2018-08-19T05:30:36.467Z,1408.00
2018-08-19T05:31:36.424Z,1464.00
2018-08-19T05:32:36.349Z,1532.00
2018-08-19T05:33:36.332Z,1608.00
2018-08-19T05:34:36.250Z,1724.00
2018-08-19T05:35:36.234Z,1824.00
2018-08-19T05:36:36.162Z,1948.00
2018-08-19T05:37:36.113Z,2060.00
2018-08-19T05:38:36.108Z,2000.00
2018-08-19T05:39:36.034Z,1940.00
2018-08-19T05:40:35.964Z,2068.00
2018-08-19T05:41:35.916Z,2252.00
2018-08-19T05:42:35.876Z,2256.00
2018-08-19T05:43:35.846Z,2288.00
2018-08-19T05:44:35.775Z,2324.00
2018-08-19T05:45:35.724Z,2384.00
2018-08-19T05:46:35.705Z,2424.00
2018-08-19T05:47:35.634Z,2448.00
2018-08-19T05:48:35.604Z,2476.00
2018-08-19T05:49:35.534Z,2504.00
2018-08-19T05:50:35.497Z,2580.00
2018-08-19T05:51:35.440Z,2624.00
2018-08-19T05:52:35.389Z,2612.00
2018-08-19T05:53:35.367Z,2648.00
2018-08-19T05:54:35.298Z,2668.00
2018-08-19T05:55:35.264Z,2736.00
2018-08-19T05:56:35.217Z,2700.00
2018-08-19T05:57:35.152Z,2716.00
2018-08-19T05:58:35.143Z,2728.00
2018-08-19T05:59:35.059Z,2744.00
2018-08-19T06:00:35.010Z,2788.00
2018-08-19T06:01:34.965Z,2748.00
2018-08-19T06:02:34.916Z,2736.00
2018-08-19T06:03:34.891Z,2784.00
2018-08-19T06:04:34.826Z,2764.00
2018-08-19T06:05:34.780Z,2796.00
2018-08-19T06:06:34.746Z,2796.00
2018-08-19T06:07:34.753Z,2840.00
2018-08-19T06:08:34.681Z,2868.00
2018-08-19T06:09:34.588Z,2948.00
2018-08-19T06:10:34.547Z,2976.00
2018-08-19T06:11:34.496Z,3008.00
2018-08-19T06:12:34.444Z,3000.00
2018-08-19T06:13:34.396Z,3016.00
2018-08-19T06:14:34.374Z,3032.00
2018-08-19T06:15:34.304Z,3060.00
2018-08-19T06:16:34.258Z,3008.00
2018-08-19T06:17:34.208Z,3036.00
2018-08-19T06:18:34.166Z,3064.00
2018-08-19T06:19:34.148Z,3076.00
2018-08-19T06:20:34.072Z,3148.00
2018-08-19T06:21:34.022Z,3180.00
2018-08-19T06:22:33.977Z,3184.00
2018-08-19T06:23:33.928Z,3160.00
2018-08-19T06:24:33.940Z,3172.00
2018-08-19T06:25:33.831Z,3144.00
2018-08-19T06:26:33.788Z,3160.00
2018-08-19T06:27:33.737Z,3228.00
2018-08-19T06:28:33.694Z,3268.00
2018-08-19T06:29:33.673Z,3268.00
2018-08-19T06:30:33.596Z,3272.00
2018-08-19T06:31:33.570Z,3276.00
2018-08-19T06:32:33.509Z,3324.00
2018-08-19T06:33:33.459Z,3332.00
2018-08-19T06:34:33.575Z,3380.00
2018-08-19T06:35:33.367Z,3412.00
2018-08-19T06:36:33.360Z,3416.00
2018-08-19T06:37:33.272Z,3436.00
2018-08-19T06:38:33.227Z,3488.00
2018-08-19T06:39:33.224Z,3524.00
2018-08-19T06:40:33.138Z,3584.00
2018-08-19T06:41:33.082Z,3620.00
2018-08-19T06:42:33.048Z,3644.00
2018-08-19T06:43:32.992Z,3640.00
2018-08-19T06:44:32.970Z,3636.00
2018-08-19T06:45:32.901Z,3676.00
2018-08-19T06:46:32.850Z,3712.00
2018-08-19T06:47:32.806Z,3736.00
2018-08-19T06:48:32.759Z,3772.00
2018-08-19T06:49:32.741Z,3804.00
2018-08-19T06:50:32.666Z,3812.00
2018-08-19T06:51:32.622Z,3840.00
2018-08-19T06:52:32.576Z,3868.00
2018-08-19T06:53:32.540Z,3888.00
2018-08-19T06:54:32.519Z,3944.00
2018-08-19T06:55:32.433Z,3912.00
2018-08-19T06:56:32.385Z,3936.00
2018-08-19T06:57:32.338Z,3920.00
2018-08-19T06:58:32.311Z,3936.00
2018-08-19T06:59:32.284Z,3940.00
2018-08-19T07:00:32.215Z,3948.00
2018-08-19T07:01:32.159Z,3928.00
2018-08-19T07:02:32.129Z,3904.00
2018-08-19T07:03:32.171Z,3912.00
2018-08-19T07:04:32.056Z,3924.00
2018-08-19T07:05:31.970Z,3928.00
2018-08-19T07:06:31.974Z,3932.00
2018-08-19T07:07:31.880Z,3912.00
2018-08-19T07:08:31.849Z,3896.00
2018-08-19T07:09:31.834Z,3952.00
2018-08-19T07:10:31.747Z,3960.00
2018-08-19T07:11:31.695Z,3948.00
2018-08-19T07:12:31.655Z,3956.00
2018-08-19T07:13:31.603Z,3956.00
2018-08-19T07:14:31.646Z,4008.00
2018-08-19T07:15:31.515Z,3964.00
2018-08-19T07:16:31.479Z,3948.00
2018-08-19T07:17:31.474Z,3940.00
2018-08-19T07:18:31.385Z,3932.00
2018-08-19T07:19:31.344Z,3944.00
2018-08-19T07:20:31.274Z,3976.00
2018-08-19T07:21:31.268Z,3972.00
2018-08-19T07:22:31.213Z,3956.00
2018-08-19T07:23:31.146Z,3940.00
2018-08-19T07:24:31.116Z,3948.00
2018-08-19T07:25:31.056Z,3944.00
2018-08-19T07:26:31.039Z,3952.00
2018-08-19T07:27:30.970Z,3948.00
2018-08-19T07:28:30.913Z,3976.00
2018-08-19T07:29:30.920Z,4040.00
2018-08-19T07:30:30.826Z,4028.00
2018-08-19T07:31:30.813Z,4012.00
2018-08-19T07:32:30.736Z,4012.00
2018-08-19T07:33:30.725Z,3988.00
2018-08-19T07:34:30.635Z,3928.00
2018-08-19T07:35:30.632Z,3884.00
2018-08-19T07:36:30.572Z,3880.00
2018-08-19T07:37:30.499Z,3888.00
2018-08-19T07:38:30.459Z,3920.00
2018-08-19T07:39:30.408Z,3844.00
2018-08-19T07:40:30.393Z,3820.00
2018-08-19T07:41:30.319Z,3860.00
2018-08-19T07:42:30.273Z,3948.00
2018-08-19T07:43:30.241Z,3920.00
2018-08-19T07:44:30.177Z,3880.00
2018-08-19T07:45:30.156Z,3872.00
2018-08-19T07:46:30.112Z,3924.00
2018-08-19T07:47:30.054Z,3768.00
2018-08-19T07:48:30.019Z,3856.00
2018-08-19T07:49:29.957Z,3804.00
2018-08-19T07:50:29.961Z,3808.00
2018-08-19T07:51:29.867Z,3788.00
2018-08-19T07:52:29.814Z,3852.00
2018-08-19T07:53:29.775Z,3828.00
2018-08-19T07:54:29.726Z,3764.00
2018-08-19T07:55:29.705Z,3704.00
2018-08-19T07:56:29.638Z,3716.00
2018-08-19T07:57:29.590Z,3784.00
2018-08-19T07:58:29.560Z,3724.00
2018-08-19T07:59:29.542Z,3752.00
2018-08-19T08:00:29.482Z,3700.00
2018-08-19T08:01:29.497Z,3732.00
2018-08-19T08:02:29.365Z,3676.00
2018-08-19T08:03:29.325Z,3664.00
2018-08-19T08:04:29.274Z,3568.00
2018-08-19T08:05:29.260Z,3532.00
2018-08-19T08:06:29.183Z,3568.00
2018-08-19T08:07:29.137Z,3572.00
2018-08-19T08:08:29.095Z,3520.00
2018-08-19T08:09:29.044Z,3448.00
2018-08-19T08:10:29.029Z,3384.00
2018-08-19T08:11:28.956Z,3452.00
2018-08-19T08:12:28.911Z,3544.00
2018-08-19T08:13:28.865Z,3468.00
2018-08-19T08:14:28.868Z,3344.00
2018-08-19T08:15:28.813Z,3316.00
2018-08-19T08:16:28.731Z,3360.00
2018-08-19T08:17:28.706Z,3428.00
2018-08-19T08:18:28.640Z,3444.00
2018-08-19T08:19:28.615Z,3384.00
2018-08-19T08:20:28.588Z,3300.00
2018-08-19T08:21:28.709Z,3384.00
2018-08-19T08:22:28.472Z,3356.00
2018-08-19T08:23:28.420Z,3360.00
2018-08-19T08:24:28.379Z,3288.00
2018-08-19T08:25:28.373Z,3232.00
2018-08-19T08:26:28.281Z,3232.00
2018-08-19T08:27:28.244Z,3288.00
2018-08-19T08:28:28.216Z,3252.00
2018-08-19T08:29:28.155Z,3212.00
2018-08-19T08:30:28.135Z,3196.00
2018-08-19T08:31:28.073Z,3236.00
2018-08-19T08:32:28.016Z,3236.00
2018-08-19T08:33:27.970Z,3328.00
2018-08-19T08:34:28.007Z,3252.00
2018-08-19T08:35:27.908Z,3236.00
2018-08-19T08:36:27.839Z,3200.00
2018-08-19T08:37:27.826Z,3228.00
2018-08-19T08:38:27.772Z,3184.00
2018-08-19T08:39:27.725Z,3280.00
2018-08-19T08:40:27.704Z,3304.00
2018-08-19T08:41:27.629Z,3276.00
2018-08-19T08:42:27.572Z,3352.00
2018-08-19T08:43:27.527Z,3364.00
2018-08-19T08:44:27.481Z,3376.00
2018-08-19T08:45:27.460Z,3336.00
2018-08-19T08:46:27.398Z,3260.00
2018-08-19T08:47:27.361Z,3352.00
2018-08-19T08:48:27.306Z,3268.00
2018-08-19T08:49:27.258Z,3272.00
2018-08-19T08:50:27.261Z,3324.00
2018-08-19T08:51:27.173Z,3368.00
2018-08-19T08:52:27.125Z,3100.00
2018-08-19T08:53:27.089Z,2832.00
2018-08-19T08:54:27.042Z,3244.00
2018-08-19T08:55:26.998Z,3448.00
2018-08-19T08:56:27.012Z,2820.00
2018-08-19T08:57:26.916Z,3516.00
2018-08-19T08:58:26.863Z,3348.00
2018-08-19T08:59:26.822Z,3384.00
2018-08-19T09:00:26.773Z,2808.00
2018-08-19T09:01:26.757Z,3508.00
2018-08-19T09:02:26.685Z,3412.00
2018-08-19T09:03:26.641Z,2832.00
2018-08-19T09:04:26.599Z,3404.00
2018-08-19T09:05:26.556Z,2744.00
2018-08-19T09:06:26.530Z,3536.00
2018-08-19T09:07:26.462Z,3348.00
2018-08-19T09:08:26.420Z,2884.00
2018-08-19T09:09:26.381Z,3504.00
2018-08-19T09:10:26.338Z,3476.00
2018-08-19T09:11:26.310Z,3676.00
2018-08-19T09:12:26.250Z,3608.00
2018-08-19T09:13:26.200Z,3112.00
2018-08-19T09:14:26.162Z,3300.00
2018-08-19T09:15:26.137Z,3752.00
2018-08-19T09:16:26.099Z,3164.00
2018-08-19T09:17:26.053Z,3724.00
2018-08-19T09:18:25.990Z,4280.00
2018-08-19T09:19:26.016Z,4572.00
2018-08-19T09:20:25.895Z,3452.00
2018-08-19T09:21:25.875Z,4268.00
2018-08-19T09:22:25.808Z,5160.00
2018-08-19T09:23:25.776Z,6260.00
2018-08-19T09:24:25.720Z,5112.00
2018-08-19T09:25:25.674Z,4704.00
2018-08-19T09:26:25.651Z,4676.00
2018-08-19T09:27:25.711Z,4360.00
2018-08-19T09:28:25.545Z,5988.00
2018-08-19T09:29:25.499Z,5336.00
2018-08-19T09:30:25.455Z,6092.00
2018-08-19T09:31:25.435Z,6024.00
2018-08-19T09:32:30.162Z,6220.00
2018-08-19T09:33:25.346Z,5616.00
2018-08-19T09:34:25.278Z,3888.00
2018-08-19T09:35:25.234Z,3072.00
2018-08-19T09:36:25.213Z,4220.00
2018-08-19T09:37:25.146Z,6136.00
2018-08-19T09:38:25.105Z,6620.00
2018-08-19T09:39:25.070Z,7024.00
2018-08-19T09:40:25.015Z,6884.00
2018-08-19T09:41:25.001Z,4588.00
2018-08-19T09:42:24.930Z,3792.00
2018-08-19T09:43:24.889Z,2648.00
2018-08-19T09:44:24.869Z,2732.00
2018-08-19T09:45:24.798Z,3456.00
2018-08-19T09:46:24.817Z,4600.00
2018-08-19T09:47:24.712Z,4688.00
2018-08-19T09:48:24.677Z,5292.00
2018-08-19T09:49:24.625Z,5408.00
2018-08-19T09:50:24.588Z,4800.00
2018-08-19T09:51:24.562Z,5500.00
2018-08-19T09:52:24.496Z,4632.00
2018-08-19T09:53:24.450Z,4064.00
2018-08-19T09:54:24.407Z,3772.00
2018-08-19T09:55:24.368Z,4908.00
2018-08-19T09:56:24.353Z,5336.00
2018-08-19T09:57:24.277Z,6304.00
2018-08-19T09:58:24.243Z,5408.00
2018-08-19T09:59:24.188Z,4716.00
2018-08-19T10:00:24.145Z,6136.00
2018-08-19T10:01:24.149Z,4524.00
2018-08-19T10:02:24.065Z,4200.00
2018-08-19T10:03:24.016Z,3604.00
2018-08-19T10:04:23.985Z,3036.00
2018-08-19T10:05:23.943Z,3660.00
2018-08-19T10:06:23.886Z,4044.00
2018-08-19T10:07:23.911Z,3904.00
2018-08-19T10:08:23.800Z,5216.00
2018-08-19T10:09:23.782Z,5548.00
2018-08-19T10:10:23.718Z,5744.00
2018-08-19T10:11:23.671Z,5372.00
2018-08-19T10:12:23.675Z,4848.00
2018-08-19T10:13:23.646Z,5352.00
2018-08-19T10:14:23.546Z,4804.00
2018-08-19T10:15:23.501Z,4120.00
2018-08-19T10:16:23.457Z,3856.00
2018-08-19T10:17:23.439Z,4252.00
2018-08-19T10:18:23.373Z,4632.00
2018-08-19T10:19:23.330Z,5600.00
2018-08-19T10:20:23.284Z,4816.00
2018-08-19T10:21:23.248Z,3936.00
2018-08-19T10:22:23.249Z,3640.00
2018-08-19T10:23:23.164Z,3620.00
2018-08-19T10:24:23.117Z,3580.00
2018-08-19T10:25:23.081Z,3596.00
2018-08-19T10:26:23.038Z,3572.00
2018-08-19T10:27:23.011Z,3672.00
2018-08-19T10:28:22.945Z,3564.00
2018-08-19T10:29:22.906Z,3916.00
2018-08-19T10:30:22.862Z,4424.00
2018-08-19T10:31:22.834Z,4284.00
2018-08-19T10:32:22.811Z,4260.00
2018-08-19T10:33:22.731Z,3632.00
2018-08-19T10:34:22.694Z,4056.00
2018-08-19T10:35:22.650Z,3876.00
2018-08-19T10:36:22.597Z,3660.00
2018-08-19T10:37:22.588Z,3716.00
2018-08-19T10:38:22.518Z,3524.00
2018-08-19T10:39:22.486Z,3176.00
2018-08-19T10:40:22.441Z,3988.00
2018-08-19T10:41:22.388Z,4196.00
2018-08-19T10:42:22.366Z,4328.00
2018-08-19T10:43:22.300Z,4900.00
2018-08-19T10:44:22.263Z,4388.00
2018-08-19T10:45:22.215Z,4104.00
2018-08-19T10:46:22.226Z,4004.00
2018-08-19T10:47:22.179Z,3796.00
2018-08-19T10:48:22.087Z,3472.00
2018-08-19T10:49:22.048Z,3396.00
2018-08-19T10:50:22.002Z,3412.00
2018-08-19T10:51:21.957Z,3332.00
2018-08-19T10:52:21.913Z,3360.00
2018-08-19T10:53:21.933Z,3788.00
2018-08-19T10:54:21.830Z,4060.00
2018-08-19T10:55:21.783Z,3516.00
2018-08-19T10:56:21.743Z,3440.00
2018-08-19T10:57:21.700Z,3364.00
2018-08-19T10:58:21.714Z,3368.00
2018-08-19T10:59:21.612Z,3344.00
2018-08-19T11:00:21.570Z,3364.00
2018-08-19T11:01:21.530Z,3328.00
2018-08-19T11:02:21.485Z,3244.00
2018-08-19T11:03:21.466Z,3236.00
2018-08-19T11:04:21.395Z,3792.00
2018-08-19T11:05:21.360Z,4888.00
2018-08-19T11:06:21.306Z,4064.00
2018-08-19T11:07:21.267Z,3748.00
2018-08-19T11:08:21.253Z,3584.00
2018-08-19T11:09:21.184Z,3404.00
2018-08-19T11:10:21.136Z,3340.00
2018-08-19T11:11:21.099Z,3164.00
2018-08-19T11:12:21.052Z,3416.00
2018-08-19T11:13:21.068Z,3340.00
2018-08-19T11:14:20.968Z,3360.00
2018-08-19T11:15:20.923Z,3184.00
2018-08-19T11:16:20.877Z,3520.00
2018-08-19T11:17:20.838Z,3520.00
2018-08-19T11:18:20.813Z,3376.00
2018-08-19T11:19:20.748Z,3308.00
2018-08-19T11:20:20.704Z,3268.00
2018-08-19T11:21:20.661Z,3204.00
2018-08-19T11:22:20.623Z,3240.00
2018-08-19T11:23:20.595Z,3212.00
2018-08-19T11:24:20.543Z,3112.00
2018-08-19T11:25:20.493Z,3148.00
2018-08-19T11:26:20.458Z,3072.00
2018-08-19T11:27:20.402Z,3112.00
2018-08-19T11:28:20.383Z,3336.00
2018-08-19T11:29:20.319Z,3180.00
2018-08-19T11:30:20.273Z,3252.00
2018-08-19T11:31:20.283Z,3116.00
2018-08-19T11:32:20.185Z,3112.00
2018-08-19T11:33:20.196Z,3108.00
2018-08-19T11:34:20.104Z,3012.00
2018-08-19T11:35:20.060Z,2972.00
2018-08-19T11:36:20.016Z,2940.00
2018-08-19T11:37:19.975Z,2924.00
2018-08-19T11:38:20.138Z,2932.00
2018-08-19T11:39:19.885Z,2940.00
2018-08-19T11:40:19.843Z,2952.00
2018-08-19T11:41:19.803Z,2952.00
2018-08-19T11:42:19.754Z,2956.00
2018-08-19T11:43:19.764Z,3020.00
2018-08-19T11:44:19.694Z,2944.00
2018-08-19T11:45:19.688Z,2888.00
2018-08-19T11:46:19.597Z,2908.00
2018-08-19T11:47:19.545Z,2920.00
2018-08-19T11:48:19.524Z,2912.00
2018-08-19T11:49:19.455Z,2912.00
2018-08-19T11:50:19.419Z,2964.00
2018-08-19T11:51:19.371Z,2968.00
2018-08-19T11:52:19.331Z,2972.00
2018-08-19T11:53:19.310Z,2936.00
2018-08-19T11:54:19.264Z,2872.00
2018-08-19T11:55:19.229Z,2904.00
2018-08-19T11:56:19.165Z,2864.00
2018-08-19T11:57:19.112Z,2848.00
2018-08-19T11:58:19.112Z,2828.00
2018-08-19T11:59:19.026Z,2796.00
2018-08-19T12:00:18.984Z,2832.00
2018-08-19T12:01:18.941Z,2816.00
2018-08-19T12:02:18.896Z,2880.00
2018-08-19T12:03:18.852Z,2924.00
2018-08-19T12:04:18.832Z,2940.00
2018-08-19T12:05:18.804Z,2952.00
2018-08-19T12:06:18.722Z,2844.00
2018-08-19T12:07:18.679Z,2800.00
2018-08-19T12:08:18.701Z,2764.00
2018-08-19T12:09:18.619Z,2760.00
2018-08-19T12:10:18.548Z,2804.00
2018-08-19T12:11:18.526Z,2784.00
2018-08-19T12:12:18.459Z,2804.00
2018-08-19T12:13:18.424Z,2808.00
2018-08-19T12:14:18.409Z,2776.00
2018-08-19T12:15:18.349Z,2688.00
2018-08-19T12:16:18.297Z,2728.00
2018-08-19T12:17:18.247Z,2696.00
2018-08-19T12:18:18.207Z,2660.00
2018-08-19T12:19:18.180Z,2692.00
2018-08-19T12:20:18.116Z,2680.00
2018-08-19T12:21:18.072Z,2680.00
2018-08-19T12:22:18.034Z,2652.00
2018-08-19T12:23:17.996Z,2656.00
2018-08-19T12:24:17.979Z,2636.00
2018-08-19T12:25:17.901Z,2608.00
2018-08-19T12:26:17.857Z,2588.00
2018-08-19T12:27:17.839Z,2612.00
2018-08-19T12:28:17.767Z,2572.00
2018-08-19T12:29:17.757Z,2552.00
2018-08-19T12:30:17.692Z,2556.00